Time;durP1;ratioP1;P1;durP2;ratioP2;P2;SDS_P1;SDS_P2;PMS_P1;PMS_P2;Temp;Humidity;BMP_temperature;BMP_pressure;BME280_temperature;BME280_humidity;BME280_pressure;Samples;Min_cycle;Max_cycle;Signal;HPM_P1;HPM_P2
2021/06/05 00:02:24;;;;;;;4.18;2.90;;;;;;;15.52;89.51;98863.44;5061464;28;20023;-63
2021/06/05 00:04:52;;;;;;;11.07;2.97;;;;;;;15.52;89.42;98859.94;5061999;28;20040;-63
2021/06/05 00:07:17;;;;;;;6.45;3.20;;;;;;;15.51;89.46;98851.13;5065322;28;20021;-63
2021/06/05 00:09:43;;;;;;;6.60;3.00;;;;;;;15.55;89.32;98863.34;5065334;28;20028;-63
2021/06/05 00:12:13;;;;;;;4.57;3.05;;;;;;;15.48;88.79;98856.53;5065490;28;20025;-63
2021/06/05 00:14:38;;;;;;;6.15;2.75;;;;;;;15.50;88.97;98849.38;5063777;28;20088;-63
2021/06/05 00:17:04;;;;;;;5.22;2.83;;;;;;;15.55;88.97;98857.16;5061748;28;20213;-63
2021/06/05 00:19:29;;;;;;;6.32;2.90;;;;;;;15.51;89.12;98848.47;5060705;28;20021;-63
2021/06/05 00:21:55;;;;;;;6.63;2.90;;;;;;;15.46;89.33;98847.75;5061552;28;20395;-63
2021/06/05 00:24:20;;;;;;;9.65;2.53;;;;;;;15.51;88.84;98835.19;5061469;28;20327;-63
2021/06/05 00:26:46;;;;;;;5.10;2.90;;;;;;;15.52;89.38;98836.94;5061507;28;20041;-63
2021/06/05 00:29:12;;;;;;;8.50;3.22;;;;;;;15.64;89.38;98852.41;5048423;28;20041;-63
2021/06/05 00:31:37;;;;;;;7.50;3.20;;;;;;;15.60;89.21;98845.47;5048317;28;20309;-63
2021/06/05 00:34:03;;;;;;;5.78;3.08;;;;;;;15.60;89.40;98849.91;5047325;28;20037;-63
2021/06/05 00:36:29;;;;;;;6.13;3.30;;;;;;;15.68;89.66;98843.41;5048285;28;20212;-63
2021/06/05 00:38:54;;;;;;;7.38;2.28;;;;;;;15.67;89.15;98852.31;5048388;28;20017;-63
2021/06/05 00:41:22;;;;;;;7.65;3.20;;;;;;;15.53;88.88;98845.75;5048379;28;20021;-63
2021/06/05 00:43:50;;;;;;;5.50;2.63;;;;;;;15.53;88.80;98848.41;5061314;28;20017;-63
2021/06/05 00:46:19;;;;;;;8.10;2.45;;;;;;;15.50;88.78;98853.81;5059289;28;20065;-63
2021/06/05 00:48:45;;;;;;;6.47;2.45;;;;;;;15.51;89.30;98855.56;5060975;28;20021;-63
2021/06/05 00:51:11;;;;;;;5.70;2.45;;;;;;;15.55;89.15;98851.84;5060343;28;20017;-63
2021/06/05 00:53:37;;;;;;;3.35;2.30;;;;;;;15.51;88.80;98853.78;5059705;28;20040;-63
2021/06/05 00:56:06;;;;;;;6.53;2.35;;;;;;;15.43;88.96;98861.13;5061269;28;20016;-63
2021/06/05 00:58:32;;;;;;;3.05;2.47;;;;;;;15.38;89.08;98865.75;5054801;28;20025;-63
2021/06/05 01:01:17;;;;;;;4.38;2.65;;;;;;;15.37;89.31;98858.69;5048926;28;20017;-63
2021/06/05 01:03:43;;;;;;;4.25;2.70;;;;;;;15.43;89.50;98858.47;5047701;28;20049;-63
2021/06/05 01:06:32;;;;;;;3.50;2.58;;;;;;;15.58;89.50;98857.94;5050289;28;20025;-63
2021/06/05 01:09:37;;;;;;;4.47;2.88;;;;;;;15.59;89.22;98849.03;5060546;28;20032;-63
2021/06/05 01:12:16;;;;;;;5.78;2.67;;;;;;;15.44;89.34;98852.22;5049290;28;20071;-63
2021/06/05 01:15:14;;;;;;;7.13;3.03;;;;;;;15.38;89.93;98851.59;5046565;28;20028;-63
2021/06/05 01:17:48;;;;;;;3.10;2.58;;;;;;;15.51;89.75;98851.13;5047936;28;20064;-63
2021/06/05 01:20:21;;;;;;;8.82;3.17;;;;;;;15.46;89.34;98850.41;5046462;28;20024;-63
2021/06/05 01:22:57;;;;;;;9.07;3.63;;;;;;;15.38;90.06;98848.94;5058109;28;20017;-63
2021/06/05 01:25:41;;;;;;;6.15;3.58;;;;;;;15.40;89.94;98847.97;5046162;28;20037;-63
2021/06/05 01:28:15;;;;;;;11.27;3.10;;;;;;;15.43;89.79;98842.56;5052297;28;20029;-63
2021/06/05 01:30:45;;;;;;;5.18;3.10;;;;;;;15.36;90.28;98841.00;5046313;28;20017;-63
2021/06/05 01:33:12;;;;;;;5.63;2.92;;;;;;;15.33;90.30;98846.41;5046986;28;20043;-63
2021/06/05 01:35:38;;;;;;;8.45;3.42;;;;;;;15.36;90.60;98846.31;5059493;28;20013;-63
2021/06/05 01:38:06;;;;;;;5.45;3.00;;;;;;;15.38;90.19;98839.22;5057413;28;20028;-63
2021/06/05 01:40:33;;;;;;;8.57;3.38;;;;;;;15.35;90.05;98833.09;5059277;28;20200;-63
2021/06/05 01:43:01;;;;;;;7.57;3.20;;;;;;;15.34;90.10;98837.53;5059460;28;20301;-63
2021/06/05 01:45:29;;;;;;;5.22;2.92;;;;;;;15.36;90.17;98834.81;5046953;28;20016;-63
2021/06/05 01:47:56;;;;;;;2.97;2.60;;;;;;;15.41;90.12;98833.78;5047482;28;20024;-63
2021/06/05 01:50:26;;;;;;;5.30;2.78;;;;;;;15.40;89.90;98826.75;5047478;28;20212;-63
2021/06/05 01:52:54;;;;;;;5.47;3.05;;;;;;;15.32;89.81;98833.22;5046397;28;20021;-63
2021/06/05 01:55:33;;;;;;;4.50;3.03;;;;;;;15.33;89.99;98825.19;5057172;28;20025;-63
2021/06/05 01:58:02;;;;;;;7.15;3.00;;;;;;;15.32;89.98;98828.78;5058736;28;20048;-63
2021/06/05 02:00:35;;;;;;;5.40;3.53;;;;;;;15.25;90.17;98816.63;5058728;28;20343;-63
2021/06/05 02:03:01;;;;;;;7.32;3.20;;;;;;;15.25;90.13;98821.94;5048227;28;20021;-63
2021/06/05 02:05:29;;;;;;;3.70;2.80;;;;;;;15.28;90.06;98808.56;5047606;28;20221;-63
2021/06/05 02:07:55;;;;;;;8.63;3.08;;;;;;;15.23;89.87;98808.72;5047647;28;20030;-63
2021/06/05 02:10:23;;;;;;;9.40;3.30;;;;;;;15.15;90.08;98815.22;5047557;28;20028;-63
2021/06/05 02:12:54;;;;;;;8.23;2.97;;;;;;;15.18;89.92;98820.44;5047528;28;20048;-63
2021/06/05 02:15:47;;;;;;;5.32;2.92;;;;;;;15.11;90.23;98813.59;5047497;28;20029;-63
2021/06/05 02:18:17;;;;;;;5.38;3.00;;;;;;;15.08;90.00;98808.41;5047433;28;20044;-63
2021/06/05 02:20:56;;;;;;;8.10;2.75;;;;;;;15.04;89.99;98822.69;5047443;28;20032;-63
2021/06/05 02:24:00;;;;;;;5.60;3.00;;;;;;;15.10;90.21;98817.19;5047300;28;20045;-63
2021/06/05 02:26:26;;;;;;;5.70;2.70;;;;;;;15.04;89.96;98812.09;5047311;28;20333;-63
2021/06/05 02:28:55;;;;;;;8.07;3.05;;;;;;;15.02;90.20;98819.22;5047263;28;20022;-63
2021/06/05 02:31:21;;;;;;;5.45;3.47;;;;;;;15.03;90.26;98815.66;5059644;28;20013;-63
2021/06/05 02:33:47;;;;;;;7.90;3.22;;;;;;;15.03;90.54;98821.81;5062358;28;20021;-63
2021/06/05 02:36:14;;;;;;;6.82;3.00;;;;;;;15.05;90.60;98819.13;5063852;28;20012;-63
2021/06/05 02:38:42;;;;;;;3.95;2.80;;;;;;;15.02;90.57;98819.22;5061910;28;20040;-63
2021/06/05 02:41:10;;;;;;;6.82;3.03;;;;;;;15.00;90.36;98815.78;5049396;28;20090;-63
2021/06/05 02:43:37;;;;;;;2.90;2.63;;;;;;;15.03;90.27;98815.66;5049249;28;20021;-63
2021/06/05 02:46:11;;;;;;;7.40;3.15;;;;;;;15.04;90.12;98812.94;5050462;28;20047;-63
2021/06/05 02:48:47;;;;;;;5.95;2.97;;;;;;;15.08;90.27;98813.72;5050452;28;20081;-63
2021/06/05 02:51:14;;;;;;;5.13;3.08;;;;;;;15.12;90.41;98817.97;5063304;28;20017;-63
2021/06/05 02:53:39;;;;;;;4.97;3.13;;;;;;;15.08;90.04;98813.72;5063380;28;20419;-63
2021/06/05 02:56:05;;;;;;;5.63;2.80;;;;;;;14.98;90.01;98822.91;5060147;28;20021;-63
2021/06/05 02:58:31;;;;;;;5.93;2.50;;;;;;;14.94;89.91;98822.13;5049021;28;20068;-63
2021/06/05 03:00:56;;;;;;;4.32;2.60;;;;;;;15.00;89.70;98821.06;5050378;28;20100;-63
2021/06/05 03:03:22;;;;;;;5.13;3.10;;;;;;;14.99;90.10;98819.31;5050091;28;20025;-63
2021/06/05 03:05:52;;;;;;;7.53;2.72;;;;;;;15.01;90.49;98821.03;5050249;28;20248;-63
2021/06/05 03:08:22;;;;;;;6.50;3.22;;;;;;;15.07;90.51;98827.91;5062142;28;20020;-63
2021/06/05 03:10:48;;;;;;;6.65;2.80;;;;;;;15.15;90.33;98825.84;5062206;28;20319;-63
2021/06/05 03:13:14;;;;;;;7.75;3.55;;;;;;;15.16;90.22;98827.59;5059245;28;20020;-63
2021/06/05 03:15:40;;;;;;;4.22;2.42;;;;;;;15.24;90.39;98825.50;5052169;28;20013;-63
2021/06/05 03:18:06;;;;;;;6.43;2.90;;;;;;;15.31;89.99;98827.03;5048691;28;20021;-63
2021/06/05 03:20:36;;;;;;;4.55;3.10;;;;;;;15.33;89.68;98822.56;5049794;28;20359;-63
2021/06/05 03:23:02;;;;;;;6.68;2.88;;;;;;;15.36;89.68;98822.44;5048554;28;20025;-63
2021/06/05 03:25:28;;;;;;;4.13;2.92;;;;;;;15.30;89.80;98820.00;5048570;28;20089;-63
2021/06/05 03:27:53;;;;;;;9.43;3.30;;;;;;;15.25;90.23;98821.94;5048259;28;20025;-63
2021/06/05 03:30:20;;;;;;;7.13;4.53;;;;;;;15.33;90.39;98819.03;5049604;28;20044;-63
2021/06/05 03:32:46;;;;;;;7.50;2.90;;;;;;;15.44;89.46;98811.59;5062988;28;20079;-63
2021/06/05 03:35:13;;;;;;;5.13;3.40;;;;;;;15.40;90.11;98810.81;5065985;28;20321;-63
2021/06/05 03:37:39;;;;;;;6.97;2.85;;;;;;;15.46;90.00;98810.63;5065943;28;20094;-63
2021/06/05 03:40:06;;;;;;;5.72;3.17;;;;;;;15.52;90.00;98798.91;5065927;28;20324;-63
2021/06/05 03:42:31;;;;;;;5.88;3.10;;;;;;;15.58;89.95;98799.56;5065806;28;20029;-63
2021/06/05 03:44:57;;;;;;;5.53;3.15;;;;;;;15.58;90.03;98804.88;5065793;28;20041;-63
2021/06/05 03:47:23;;;;;;;6.18;2.83;;;;;;;15.63;90.00;98808.19;5065765;28;20091;-63
2021/06/05 03:49:52;;;;;;;5.25;3.10;;;;;;;15.70;89.64;98807.09;5065659;28;20371;-63
2021/06/05 03:52:22;;;;;;;7.68;2.70;;;;;;;15.73;89.38;98804.31;5055586;28;20028;-63
2021/06/05 03:54:52;;;;;;;6.63;3.10;;;;;;;15.68;89.95;98806.25;5047988;28;20088;-63
2021/06/05 03:57:20;;;;;;;8.43;3.25;;;;;;;15.71;89.54;98805.28;5059595;28;20220;-63
2021/06/05 03:59:46;;;;;;;3.97;2.80;;;;;;;15.75;89.52;98796.28;5060738;28;20017;-63
2021/06/05 04:02:11;;;;;;;5.65;2.97;;;;;;;15.73;89.96;98798.13;5060957;28;20028;-63
2021/06/05 04:04:37;;;;;;;6.85;3.10;;;;;;;15.86;89.89;98797.63;5058916;28;20021;-63
2021/06/05 04:07:08;;;;;;;4.93;3.15;;;;;;;15.93;89.68;98796.47;5060888;28;20063;-63
2021/06/05 04:09:34;;;;;;;7.55;3.65;;;;;;;15.98;90.07;98794.47;5048012;28;20214;-63
2021/06/05 04:12:00;;;;;;;5.68;3.10;;;;;;;16.06;89.92;98796.84;5047833;28;20136;-63
2021/06/05 04:14:25;;;;;;;9.73;2.80;;;;;;;16.01;89.28;98799.66;5049737;28;20052;-63
2021/06/05 04:16:50;;;;;;;3.47;3.03;;;;;;;15.99;89.71;98798.88;5047573;28;20027;-63
2021/06/05 04:19:16;;;;;;;5.22;3.40;;;;;;;16.01;89.75;98815.59;5047547;28;20017;-63
2021/06/05 04:21:41;;;;;;;13.75;3.35;;;;;;;15.94;89.14;98819.41;5054730;28;20212;-63
2021/06/05 04:24:07;;;;;;;5.35;2.85;;;;;;;16.06;88.96;98813.66;5049058;28;20022;-63
2021/06/05 04:26:32;;;;;;;5.88;3.13;;;;;;;16.13;89.04;98825.75;5047280;28;20365;-63
2021/06/05 04:28:58;;;;;;;3.35;2.65;;;;;;;16.16;89.05;98824.75;5045019;28;20025;-63
2021/06/05 04:31:23;;;;;;;10.60;3.10;;;;;;;16.14;88.57;98827.47;5044894;28;20093;-63
2021/06/05 04:33:49;;;;;;;5.22;2.47;;;;;;;16.18;88.74;98828.25;5044927;28;20021;-63
2021/06/05 04:36:15;;;;;;;5.22;3.17;;;;;;;16.08;88.37;98824.22;5044890;28;20025;-63
2021/06/05 04:38:42;;;;;;;5.97;3.08;;;;;;;16.04;88.63;98835.88;5044943;28;20227;-63
2021/06/05 04:41:10;;;;;;;4.65;3.28;;;;;;;16.08;88.72;98830.41;5044806;28;20373;-63
2021/06/05 04:43:35;;;;;;;6.00;3.40;;;;;;;16.01;88.83;98820.91;5044680;28;20029;-63
2021/06/05 04:46:01;;;;;;;5.32;3.60;;;;;;;16.06;89.26;98831.34;5047028;28;20155;-63
2021/06/05 04:48:27;;;;;;;9.38;4.03;;;;;;;16.13;89.33;98836.38;5048167;28;20021;-63
2021/06/05 04:50:53;;;;;;;6.78;3.40;;;;;;;16.25;88.60;98835.91;5048107;28;20023;-63
2021/06/05 04:53:19;;;;;;;7.97;3.85;;;;;;;16.24;89.12;98843.94;5046913;28;20081;-63
2021/06/05 04:55:45;;;;;;;5.82;3.90;;;;;;;16.33;89.08;98839.13;5045705;28;20089;-63
2021/06/05 04:58:11;;;;;;;9.43;4.32;;;;;;;16.37;89.43;98842.53;5056552;28;20212;-63
2021/06/05 05:00:40;;;;;;;6.72;3.95;;;;;;;16.43;89.14;98839.69;5059627;28;20017;-63
2021/06/05 05:03:08;;;;;;;7.05;4.35;;;;;;;16.38;89.32;98842.47;5059408;28;20267;-63
2021/06/05 05:05:34;;;;;;;8.98;3.80;;;;;;;16.45;89.44;98844.00;5058315;28;20024;-63
2021/06/05 05:08:00;;;;;;;10.02;4.20;;;;;;;16.49;89.30;98845.59;5060169;28;20021;-63
2021/06/05 05:10:32;;;;;;;7.78;4.90;;;;;;;16.47;89.81;98839.50;5058861;28;20024;-63
2021/06/05 05:13:00;;;;;;;12.30;5.43;;;;;;;16.55;89.73;98845.34;5060102;28;20017;-63
2021/06/05 05:15:26;;;;;;;14.02;6.10;;;;;;;16.54;90.13;98843.63;5055869;28;20119;-63
2021/06/05 05:17:52;;;;;;;10.50;5.13;;;;;;;16.60;90.16;98842.53;5059505;28;20021;-63
2021/06/05 05:20:24;;;;;;;9.50;6.65;;;;;;;16.66;89.97;98848.47;5056012;28;20120;-63
2021/06/05 05:22:49;;;;;;;14.75;6.65;;;;;;;16.68;90.08;98845.75;5056013;28;20013;-63
2021/06/05 05:25:16;;;;;;;9.20;7.20;;;;;;;16.65;90.09;98852.03;5054828;28;20056;-63
2021/06/05 05:27:41;;;;;;;8.68;6.15;;;;;;;16.71;90.28;98849.13;5046753;28;20072;-63
2021/06/05 05:30:14;;;;;;;13.05;8.10;;;;;;;16.76;90.23;98844.50;5046223;28;20021;-63
2021/06/05 05:32:40;;;;;;;11.65;7.20;;;;;;;16.82;90.12;98854.03;5062647;28;20324;-63
2021/06/05 05:35:06;;;;;;;14.00;7.50;;;;;;;16.84;90.07;98857.50;5062976;28;20025;-63
2021/06/05 05:37:32;;;;;;;12.65;7.40;;;;;;;16.84;90.32;98853.03;5057679;28;20025;-63
2021/06/05 05:39:57;;;;;;;8.45;6.40;;;;;;;16.87;89.84;98852.91;5042999;28;20026;-63
2021/06/05 05:42:22;;;;;;;13.75;6.40;;;;;;;16.78;89.86;98861.28;5042752;28;20044;-63
2021/06/05 05:44:48;;;;;;;15.20;6.18;;;;;;;16.82;89.94;98857.56;5042602;28;20025;-63
2021/06/05 05:47:13;;;;;;;10.32;6.10;;;;;;;16.86;89.79;98859.16;5042933;28;20132;-63
2021/06/05 05:49:39;;;;;;;7.80;6.13;;;;;;;16.89;89.65;98861.69;5042862;28;20040;-63
2021/06/05 05:52:04;;;;;;;11.80;5.47;;;;;;;16.96;89.47;98865.81;5042875;28;20063;-63
2021/06/05 05:54:30;;;;;;;8.10;5.50;;;;;;;17.04;89.40;98855.75;5043150;28;20021;-63
2021/06/05 05:56:55;;;;;;;9.68;6.45;;;;;;;17.06;89.98;98864.50;5042715;28;20021;-63
2021/06/05 05:59:21;;;;;;;10.75;7.25;;;;;;;17.05;89.88;98862.78;5049908;28;20339;-63
2021/06/05 06:01:47;;;;;;;13.80;8.57;;;;;;;17.05;90.28;98868.09;5062684;28;20020;-63
2021/06/05 06:04:14;;;;;;;15.40;10.50;;;;;;;17.12;90.15;98869.56;5062587;28;20060;-63
2021/06/05 06:06:39;;;;;;;14.25;8.15;;;;;;;17.13;89.65;98868.66;5062599;28;20032;-63
2021/06/05 06:09:05;;;;;;;10.38;7.07;;;;;;;17.25;89.36;98870.78;5062228;28;20025;-64
2021/06/05 06:11:31;;;;;;;12.00;7.43;;;;;;;17.28;89.50;98875.97;5062633;28;20385;-63
2021/06/05 06:13:57;;;;;;;15.85;8.43;;;;;;;17.35;89.66;98876.59;5062621;28;20032;-63
2021/06/05 06:16:23;;;;;;;12.30;8.82;;;;;;;17.42;89.83;98871.88;5062610;28;20017;-63
2021/06/05 06:18:49;;;;;;;16.77;14.52;;;;;;;17.53;90.83;98877.63;5062544;28;20027;-62
2021/06/05 06:21:18;;;;;;;21.50;13.50;;;;;;;17.58;90.63;98870.31;5062556;28;20029;-62
2021/06/05 06:23:45;;;;;;;16.58;12.30;;;;;;;17.66;89.95;98881.50;5062036;28;20029;-62
2021/06/05 06:26:28;;;;;;;17.58;12.10;;;;;;;17.68;89.81;98879.66;5062364;28;20041;-62
2021/06/05 06:28:56;;;;;;;14.35;10.35;;;;;;;17.66;89.36;98873.50;5062515;28;20021;-62
2021/06/05 06:31:22;;;;;;;14.13;10.13;;;;;;;17.68;89.56;98879.66;5062700;28;20235;-62
2021/06/05 06:33:49;;;;;;;14.88;8.73;;;;;;;17.69;89.08;98876.03;5049559;28;20026;-62
2021/06/05 06:36:15;;;;;;;13.10;8.38;;;;;;;17.73;89.10;98874.97;5042071;28;20020;-62
2021/06/05 06:38:45;;;;;;;12.05;8.07;;;;;;;17.74;88.96;98884.66;5042481;28;20037;-62
2021/06/05 06:41:15;;;;;;;10.27;7.53;;;;;;;17.70;89.40;98883.97;5042446;28;20043;-62
2021/06/05 06:43:41;;;;;;;11.27;7.88;;;;;;;17.72;88.74;98883.88;5042315;28;20092;-62
2021/06/05 06:46:20;;;;;;;11.82;7.55;;;;;;;17.77;89.07;98889.88;5044352;28;20036;-62
2021/06/05 06:48:51;;;;;;;9.63;7.50;;;;;;;17.81;88.89;98881.69;5063095;28;20255;-62
2021/06/05 06:51:17;;;;;;;12.07;8.57;;;;;;;17.86;89.12;98885.00;5065966;28;20051;-62
2021/06/05 06:53:43;;;;;;;14.25;8.70;;;;;;;17.92;89.11;98883.88;5065915;28;20316;-62
2021/06/05 06:56:08;;;;;;;9.15;7.20;;;;;;;18.01;88.14;98884.34;5066105;28;20020;-62
2021/06/05 06:58:34;;;;;;;10.95;8.30;;;;;;;18.09;88.97;98886.63;5064442;28;20396;-62
2021/06/05 07:01:00;;;;;;;9.68;7.53;;;;;;;18.14;87.98;98884.63;5045347;28;20092;-62
2021/06/05 07:03:26;;;;;;;9.45;7.53;;;;;;;18.18;87.62;98891.53;5045632;28;20017;-62
2021/06/05 07:05:52;;;;;;;15.98;8.93;;;;;;;18.26;88.24;98894.72;5045599;28;20027;-62
2021/06/05 07:08:21;;;;;;;7.78;6.85;;;;;;;18.35;87.26;98894.31;5045621;28;20075;-62
2021/06/05 07:10:52;;;;;;;11.38;7.82;;;;;;;18.49;87.10;98889.22;5045595;28;20194;-62
2021/06/05 07:13:18;;;;;;;11.23;7.75;;;;;;;18.65;87.37;98893.78;5045537;28;20325;-62
2021/06/05 07:15:44;;;;;;;9.93;7.50;;;;;;;18.75;86.12;98888.84;5045105;28;20040;-62
2021/06/05 07:18:11;;;;;;;9.20;6.82;;;;;;;18.86;85.31;98892.72;5045451;28;20029;-62
2021/06/05 07:20:38;;;;;;;9.43;6.50;;;;;;;18.96;85.39;98893.16;5046570;28;20025;-62
2021/06/05 07:23:05;;;;;;;8.02;5.82;;;;;;;18.93;84.66;98893.31;5045679;28;20248;-62
2021/06/05 07:25:30;;;;;;;10.57;6.80;;;;;;;19.03;85.13;98895.47;5047908;28;20035;-62
2021/06/05 07:27:57;;;;;;;8.23;4.80;;;;;;;19.08;84.00;98903.25;5063211;28;20092;-62
2021/06/05 07:30:23;;;;;;;6.93;5.10;;;;;;;19.16;84.02;98895.69;5064908;28;20021;-62
2021/06/05 07:32:50;;;;;;;8.52;5.40;;;;;;;19.13;84.48;98903.84;5063520;28;20029;-62
2021/06/05 07:35:16;;;;;;;8.18;4.95;;;;;;;19.17;83.60;98898.28;5065121;28;20087;-62
2021/06/05 07:37:41;;;;;;;6.15;4.00;;;;;;;19.25;83.85;98904.13;5064998;28;20033;-62
2021/06/05 07:40:08;;;;;;;5.90;4.63;;;;;;;19.19;84.91;98906.22;5064715;28;20020;-65
2021/06/05 07:42:37;;;;;;;8.77;4.57;;;;;;;19.16;84.22;98904.59;5064819;28;20055;-63
2021/06/05 07:45:07;;;;;;;6.38;4.00;;;;;;;19.18;83.90;98907.19;5063213;28;20025;-63
2021/06/05 07:47:33;;;;;;;5.18;4.00;;;;;;;19.04;83.34;98905.19;5064866;28;20232;-64
2021/06/05 07:49:59;;;;;;;6.70;4.00;;;;;;;19.05;83.91;98904.22;5064814;28;20237;-65
2021/06/05 07:52:25;;;;;;;6.05;4.03;;;;;;;18.91;84.24;98906.72;5047680;28;20068;-63
2021/06/05 07:54:53;;;;;;;6.88;3.50;;;;;;;18.92;83.57;98907.59;5049741;28;20013;-63
2021/06/05 07:57:20;;;;;;;8.98;3.67;;;;;;;18.88;84.02;98911.31;5064629;28;20021;-63
2021/06/05 07:59:46;;;;;;;7.45;3.45;;;;;;;18.86;83.59;98918.56;5064245;28;20033;-64
2021/06/05 08:02:12;;;;;;;13.48;3.78;;;;;;;18.92;84.10;98904.94;5064850;28;20055;-63
2021/06/05 08:04:37;;;;;;;9.55;3.50;;;;;;;18.98;81.86;98909.94;5064421;28;20040;-65
2021/06/05 08:07:03;;;;;;;6.70;3.42;;;;;;;19.06;82.30;98915.78;5059988;28;20381;-65
2021/06/05 08:09:29;;;;;;;5.43;3.53;;;;;;;19.15;81.58;98916.19;5062822;28;20020;-65
2021/06/05 08:11:55;;;;;;;10.18;3.47;;;;;;;19.22;77.55;98909.63;5063251;28;20216;-66
2021/06/05 08:14:20;;;;;;;8.13;3.80;;;;;;;19.36;79.33;98914.28;5064349;28;20025;-65
2021/06/05 08:16:46;;;;;;;5.40;3.20;;;;;;;19.43;81.62;98917.53;5064299;28;20031;-65
2021/06/05 08:19:13;;;;;;;7.68;3.40;;;;;;;19.48;79.57;98908.34;5064073;28;20322;-65
2021/06/05 08:21:40;;;;;;;6.80;3.42;;;;;;;19.61;80.31;98911.25;5064523;28;20327;-65
2021/06/05 08:24:06;;;;;;;5.80;3.42;;;;;;;19.62;79.83;98904.97;5065062;28;20194;-65
2021/06/05 08:26:32;;;;;;;8.15;3.45;;;;;;;19.59;79.22;98908.66;5064890;28;20326;-65
2021/06/05 08:28:57;;;;;;;6.13;2.80;;;;;;;19.60;81.23;98909.50;5065026;28;20094;-65
2021/06/05 08:31:22;;;;;;;5.07;2.67;;;;;;;19.58;81.30;98904.25;5064975;28;20031;-66
2021/06/05 08:33:48;;;;;;;6.30;3.00;;;;;;;19.51;81.02;98912.63;5064998;28;20024;-66
2021/06/05 08:36:16;;;;;;;4.97;3.03;;;;;;;19.44;80.51;98912.09;5065202;28;20032;-65
2021/06/05 08:38:42;;;;;;;5.15;3.17;;;;;;;19.50;79.94;98905.59;5064844;28;20021;-64
2021/06/05 08:41:33;;;;;;;4.32;2.80;;;;;;;19.66;81.26;98907.41;5064873;28;20056;-65
2021/06/05 08:44:04;;;;;;;6.13;3.10;;;;;;;19.65;79.99;98900.31;5064730;28;20025;-65
2021/06/05 08:46:55;;;;;;;5.07;2.90;;;;;;;19.73;80.58;98907.94;5057054;28;20327;-65
2021/06/05 08:49:25;;;;;;;4.50;2.75;;;;;;;19.74;79.80;98905.19;5064634;28;20320;-64
2021/06/05 08:52:25;;;;;;;5.95;2.97;;;;;;;19.78;78.80;98909.44;5064638;28;20028;-64
2021/06/05 08:55:04;;;;;;;5.10;2.60;;;;;;;19.91;79.73;98907.88;5044620;28;20041;-64
2021/06/05 08:57:47;;;;;;;6.65;2.70;;;;;;;20.03;78.13;98904.53;5044568;28;20213;-64
2021/06/05 09:00:18;;;;;;;4.47;2.63;;;;;;;20.27;76.82;98899.72;5044425;28;20025;-64
2021/06/05 09:02:46;;;;;;;3.92;2.40;;;;;;;20.61;75.10;98895.13;5044619;28;20221;-64
2021/06/05 09:05:18;;;;;;;3.13;2.00;;;;;;;20.50;75.03;98902.88;5044570;28;20026;-64
2021/06/05 09:07:44;;;;;;;2.97;1.83;;;;;;;20.62;75.92;98890.63;5044409;28;20025;-64
2021/06/05 09:10:13;;;;;;;3.50;2.30;;;;;;;20.74;76.26;98896.16;5044337;28;20097;-64
2021/06/05 09:12:39;;;;;;;5.72;2.45;;;;;;;20.58;76.00;98899.78;5043576;28;20030;-64
2021/06/05 09:15:05;;;;;;;4.28;2.40;;;;;;;20.57;76.80;98906.91;5044269;28;20025;-64
2021/06/05 09:17:48;;;;;;;4.60;2.42;;;;;;;20.69;77.69;98900.91;5044231;28;20084;-64
2021/06/05 09:20:37;;;;;;;4.32;1.85;;;;;;;20.76;75.00;98898.75;5043082;28;20033;-64
2021/06/05 09:23:23;;;;;;;4.03;2.22;;;;;;;20.88;74.10;98896.25;5050448;28;20301;-64
2021/06/05 09:25:50;;;;;;;5.93;2.05;;;;;;;20.96;73.59;98896.72;5059566;28;20232;-64
2021/06/05 09:28:24;;;;;;;8.85;1.98;;;;;;;21.01;72.47;98891.94;5058631;28;20070;-64
2021/06/05 09:30:54;;;;;;;3.58;1.95;;;;;;;21.16;71.01;98896.44;5045716;28;20021;-64
2021/06/05 09:33:32;;;;;;;3.13;1.90;;;;;;;21.43;71.92;98899.31;5045399;28;20021;-64
2021/06/05 09:36:13;;;;;;;5.13;1.98;;;;;;;21.61;70.21;98903.56;5046497;28;20028;-64
2021/06/05 09:38:46;;;;;;;4.55;2.40;;;;;;;21.61;70.52;98905.41;5049716;28;20028;-64
2021/06/05 09:41:38;;;;;;;3.72;1.73;;;;;;;21.52;70.79;98898.78;5057553;28;20025;-64
2021/06/05 09:44:29;;;;;;;3.65;1.80;;;;;;;21.47;71.38;98899.97;5058880;28;20027;-64
2021/06/05 09:47:04;;;;;;;2.47;1.67;;;;;;;21.41;70.10;98913.78;5045349;28;20036;-64
2021/06/05 09:49:40;;;;;;;2.83;1.70;;;;;;;21.41;71.42;98913.78;5046427;28;20031;-64
2021/06/05 09:52:26;;;;;;;3.63;1.58;;;;;;;21.36;71.17;98911.34;5051663;28;20021;-64
2021/06/05 09:54:58;;;;;;;3.40;1.83;;;;;;;21.15;73.68;98915.25;5058033;28;20020;-64
2021/06/05 09:57:31;;;;;;;5.63;2.10;;;;;;;21.03;75.60;98907.94;5045242;28;20127;-64
2021/06/05 10:00:16;;;;;;;5.05;2.25;;;;;;;21.09;75.50;98913.81;5057829;28;20262;-64
2021/06/05 10:02:45;;;;;;;4.47;1.85;;;;;;;21.04;73.93;98907.00;5057945;28;20017;-64
2021/06/05 10:05:49;;;;;;;2.55;1.63;;;;;;;21.12;74.02;98913.63;5049977;28;20018;-64
2021/06/05 10:08:37;;;;;;;4.57;2.00;;;;;;;21.29;70.91;98915.31;5058000;28;20028;-64
2021/06/05 10:11:18;;;;;;;6.75;2.22;;;;;;;21.31;70.89;98902.72;5051667;28;20032;-64
2021/06/05 10:13:50;;;;;;;3.50;1.73;;;;;;;21.40;69.87;98907.53;5057692;28;20036;-64
2021/06/05 10:16:21;;;;;;;3.88;1.58;;;;;;;21.63;70.48;98904.34;5058121;28;20224;-64
2021/06/05 10:18:57;;;;;;;3.55;1.65;;;;;;;21.87;67.90;98891.34;5044306;28;20044;-64
2021/06/05 10:21:39;;;;;;;2.47;1.52;;;;;;;22.07;67.34;98880.25;5043008;28;20030;-64
2021/06/05 10:24:27;;;;;;;2.38;1.70;;;;;;;22.29;66.49;98886.00;5054721;28;20275;-64
2021/06/05 10:26:54;;;;;;;3.97;1.63;;;;;;;22.44;66.09;98882.38;5058676;28;20036;-64
2021/06/05 10:29:32;;;;;;;2.60;1.60;;;;;;;22.53;67.42;98892.56;5059093;28;20082;-64
2021/06/05 10:32:04;;;;;;;3.38;1.70;;;;;;;22.64;66.65;98885.56;5054431;28;20024;-64
2021/06/05 10:34:47;;;;;;;3.38;1.88;;;;;;;22.57;63.96;98889.59;5046646;28;20134;-64
2021/06/05 10:37:17;;;;;;;2.13;1.60;;;;;;;22.77;65.01;98885.63;5059561;28;20375;-64
2021/06/05 10:39:44;;;;;;;1.50;1.40;;;;;;;22.93;66.33;98891.72;5062059;28;20029;-64
2021/06/05 10:42:15;;;;;;;4.43;1.60;;;;;;;22.78;64.73;98887.34;5061831;28;20355;-64
2021/06/05 10:44:41;;;;;;;6.93;1.70;;;;;;;22.48;64.57;98894.63;5062709;28;20027;-64
2021/06/05 10:47:19;;;;;;;2.42;1.70;;;;;;;22.40;65.06;98896.94;5061563;28;20441;-64
2021/06/05 10:50:00;;;;;;;6.18;1.77;;;;;;;22.26;68.25;98894.25;5061329;28;20052;-64
2021/06/05 10:52:32;;;;;;;7.20;1.70;;;;;;;21.96;67.55;98906.88;5061221;28;20281;-64
2021/06/05 10:55:08;;;;;;;1.50;1.08;;;;;;;21.86;67.99;98895.00;5062773;28;20013;-64
2021/06/05 10:57:41;;;;;;;3.33;1.60;;;;;;;21.63;67.74;98900.81;5061962;28;20060;-64
2021/06/05 11:00:44;;;;;;;2.95;1.48;;;;;;;21.50;68.54;98897.13;5060939;28;20016;-64
2021/06/05 11:03:10;;;;;;;;;;;;;;;21.40;69.74;98903.97;5048516;28;20059;-64
2021/06/05 11:05:36;;;;;;;1.75;1.35;;;;;;;21.10;70.58;98899.47;5048986;28;19909;-64
2021/06/05 11:08:07;;;;;;;2.03;1.65;;;;;;;20.94;71.19;98908.44;5048209;28;20049;-64
2021/06/05 11:10:51;;;;;;;3.30;1.73;;;;;;;20.68;72.50;98907.22;5053591;28;20029;-64
2021/06/05 11:13:35;;;;;;;3.78;1.55;;;;;;;20.33;76.80;98918.97;5061175;28;20025;-62
2021/06/05 11:16:08;;;;;;;3.67;1.30;;;;;;;20.24;78.25;98911.44;5065342;28;20025;-62
2021/06/05 11:18:43;;;;;;;5.25;2.00;;;;;;;20.23;78.82;98915.06;5062310;28;20048;-62
2021/06/05 11:21:24;;;;;;;3.08;1.80;;;;;;;20.00;79.40;98912.69;5060984;28;20017;-62
2021/06/05 11:23:55;;;;;;;6.25;1.80;;;;;;;20.12;80.09;98922.78;5062701;28;20024;-62
2021/06/05 11:26:36;;;;;;;2.78;1.60;;;;;;;19.99;79.70;98913.66;5047182;28;20037;-62
2021/06/05 11:29:19;;;;;;;2.05;1.38;;;;;;;20.01;78.98;98911.78;5061837;28;20029;-62
2021/06/05 11:31:58;;;;;;;3.70;1.58;;;;;;;19.79;78.65;98908.50;5060507;28;20216;-62
2021/06/05 11:34:29;;;;;;;1.20;1.10;;;;;;;19.81;77.14;98909.28;5054408;28;20241;-62
2021/06/05 11:37:00;;;;;;;1.38;1.27;;;;;;;19.78;78.13;98908.56;5052624;28;20048;-62
2021/06/05 11:39:26;;;;;;;2.53;1.38;;;;;;;19.52;79.80;98903.72;5060337;28;20084;-62
2021/06/05 11:41:57;;;;;;;2.65;1.30;;;;;;;19.61;80.11;98914.78;5061584;28;20028;-62
2021/06/05 11:44:57;;;;;;;2.47;1.60;;;;;;;19.52;79.82;98915.25;5048176;28;20075;-62
2021/06/05 11:47:23;;;;;;;1.42;1.33;;;;;;;19.54;79.56;98916.03;5061694;28;20017;-62